Temp     Hi    Low   Out    Dew  Wind  Wind   Wind    Hi    Hi   Wind   Heat    THW                Rain    Heat    Cool    In     In    In     In     In   In Air   Temp  Wind  Wind    ISS   Arc.
  Date    Time     Out   Temp   Temp   Hum    Pt. Speed   Dir    Run Speed   Dir  Chill  Index  Index   Bar    Rain  Rate    D-D     D-D    Temp   Hum    Dew   Heat    EMC Density    2nd  Samp   Tx   Recept  Int.
----------------------------------------------------------------------------------------------------------------------------------------------------------------------------------------------------------------------
10/12/18 12:10a   18.4   18.7   18.4    78   14.5   0.0     S   0.00   9.7     S   18.4   18.7   18.7  1012.1  0.00   0.0   0.000   0.000   24.3    49   12.9   24.3   9.03 1.1684    41.7   195    2     87.8   10 
10/12/18 12:20a   18.0   18.4   18.0    80   14.5   0.0     S   0.00   4.8     S   18.0   18.3   18.3  1011.9  0.00   0.0   0.002   0.000   24.3    49   12.9   24.3   9.03 1.1681    41.7   207    2     93.2   10 
10/12/18 12:30a   17.9   18.0   17.9    78   14.1   0.0   ---   0.00   0.0   ---   17.9   18.2   18.2  1011.8  0.00   0.0   0.003   0.000   24.3    48   12.6   24.2   8.94 1.1686    41.7   208    2     93.7   10 
10/12/18 12:40a   18.0   18.0   17.9    77   13.9   0.0   ---   0.00   0.0   ---   18.0   18.2   18.2  1011.8  0.00   0.0   0.002   0.000   24.2    49   12.8   24.2   9.04 1.1688    41.7   191    2     86.0   10 
10/12/18 12:50a   18.1   18.1   18.0    78   14.2   0.0   ---   0.00   0.0   ---   18.1   18.4   18.4  1011.5  0.00   0.0   0.002   0.000   23.9    50   12.8   23.9   9.25 1.1696    41.7   213    2     95.9   10 
10/12/18  1:00a   18.1   18.1   18.1    79   14.4   0.0   ---   0.00   0.0   ---   18.1   18.4   18.4  1011.6  0.00   0.0   0.002   0.000   24.1    51   13.3   24.1   9.35 1.1684    41.7   188    2     84.7   10 
10/12/18  1:10a   18.2   18.2   18.1    81   14.9   0.0   ---   0.00   0.0   ---   18.2   18.6   18.6  1011.6  0.25   0.0   0.001   0.000   23.9    52   13.4   24.1   9.55 1.1689    41.7   211    2     95.0   10 
10/12/18  1:20a   18.0   18.2   18.0    83   15.1   0.0   ---   0.00   0.0   ---   18.0   18.3   18.3  1011.9  0.00   0.0   0.002   0.000   23.8    52   13.3   23.9   9.55 1.1698    41.7   207    2     93.2   10 
10/12/18  1:30a   17.8   18.0   17.8    84   15.0   0.0   ---   0.00   0.0   ---   17.8   18.1   18.1  1011.6  0.00   0.0   0.004   0.000   23.8    52   13.3   23.9   9.55 1.1696    41.7   207    2     93.2   10 
10/12/18  1:40a   17.7   17.8   17.7    86   15.3   0.0   ---   0.00   0.0   ---   17.7   18.0   18.0  1011.6  0.00   0.0   0.005   0.000   23.1    55   13.6   23.2  10.08 1.1719    41.7   208    2     93.7   10 
10/12/18  1:50a   17.5   17.7   17.5    87   15.3   1.6     S   0.27  12.9     S   17.5   17.8   17.8  1012.5  0.00   0.0   0.006   0.000   22.5    57   13.6   22.4  10.45 1.1753    41.7   199    2     89.6   10 
10/12/18  2:00a   17.5   17.5   17.4    89   15.7   1.6     S   0.27   9.7     S   17.5   17.9   17.9  1012.1  0.00   0.0   0.006   0.000   22.6    57   13.7   22.6  10.44 1.1743    41.7   202    2     91.0   10 
10/12/18  2:10a   17.6   17.6   17.5    89   15.7   0.0     S   0.00   6.4     S   17.6   17.9   17.9  1012.1  0.00   0.0   0.005   0.000   22.7    58   14.0   22.8  10.63 1.1734    41.7   197    2     88.7   10 
10/12/18  2:20a   17.5   17.6   17.5    90   15.8   1.6     S   0.27  11.3     S   17.5   17.9   17.9  1012.1  0.00   0.0   0.006   0.000   22.8    58   14.1   23.0  10.63 1.1729    41.7   203    2     91.4   10 
10/12/18  2:30a   17.6   17.6   17.5    90   15.9   0.0     S   0.00   4.8     S   17.6   18.0   18.0  1012.2  0.00   0.0   0.005   0.000   23.0    58   14.3   23.2  10.61 1.1721    41.7   203    2     91.4   10 
10/12/18  2:40a   17.6   17.6   17.6    90   15.9   0.0   ---   0.00   0.0   ---   17.6   18.0   18.0  1012.2  0.00   0.0   0.005   0.000   23.1    57   14.1   23.3  10.41 1.1719    41.7   189    2     85.1   10 
10/12/18  2:50a   17.7   17.7   17.6    91   16.2   0.0     S   0.00   4.8     S   17.7   18.1   18.1  1012.1  0.00   0.0   0.005   0.000   23.2    57   14.2   23.3  10.40 1.1715    41.7   202    2     91.0   10 
10/12/18  3:00a   17.7   17.7   17.7    90   16.0   0.0     S   0.00   1.6     S   17.7   18.1   18.1  1012.4  0.00   0.0   0.005   0.000   23.0    58   14.3   23.2  10.61 1.1724    41.7   193    2     86.9   10 
10/12/18  3:10a   17.8   17.8   17.7    90   16.1   0.0     S   0.00   4.8     S   17.8   18.2   18.2  1012.4  0.00   0.0   0.004   0.000   23.2    57   14.2   23.3  10.40 1.1719    41.7   203    2     91.4   10 
10/12/18  3:20a   17.8   17.8   17.8    90   16.1   1.6     S   0.27  16.1     S   17.8   18.2   18.2  1012.3  0.00   0.0   0.004   0.000   22.9    58   14.2   23.1  10.62 1.1729    41.7   174    2     78.4   10 
10/12/18  3:30a   17.8   17.8   17.8    91   16.3   4.8     S   0.80  16.1     S   17.8   18.2   18.2  1012.8  0.25   0.0   0.004   0.000   22.5    60   14.3   22.6  11.00 1.1748    41.7   176    2     79.3   10 
10/12/18  3:40a   17.6   17.8   17.6    91   16.1   8.0     S   1.34  22.5     S   17.6   18.0   18.0  1012.8  0.00   0.0   0.005   0.000   22.4    60   14.3   22.5  11.00 1.1751    41.7   201    2     90.5   10 
10/12/18  3:50a   17.4   17.6   17.4    92   16.1   8.0   SSE   1.34  16.1     S   17.4   17.8   17.8  1012.3  0.00   0.0   0.007   0.000   22.5    60   14.3   22.6  11.00 1.1742    41.7   182    2     82.0   10 
10/12/18  4:00a   17.2   17.4   17.2    92   15.9   3.2     S   0.54  14.5    SE   17.2   17.6   17.6  1012.1  0.00   0.0   0.008   0.000   22.5    59   14.1   22.6  10.85 1.1743    41.7   197    2     88.7   10 
10/12/18  4:10a   17.1   17.2   17.1    91   15.6   0.0     S   0.00   9.7     S   17.1   17.4   17.4  1012.1  0.00   0.0   0.009   0.000   22.4    58   13.8   22.4  10.65 1.1749    41.7   204    2     91.9   10 
10/12/18  4:20a   16.9   17.1   16.9    91   15.5   0.0   ---   0.00   0.0   ---   16.9   17.3   17.3  1012.2  0.25   0.0   0.010   0.000   22.2    58   13.6   22.1  10.67 1.1761    41.7   200    2     90.1   10 
10/12/18  4:30a   16.6   16.9   16.6    90   15.0   0.0   ---   0.00   0.0   ---   16.6   16.9   16.9  1012.3  0.25   4.1   0.012   0.000   22.2    57   13.2   21.9  10.47 1.1768    41.7   203    2     91.4   10 
10/12/18  4:40a   16.3   16.6   16.3    90   14.7   0.0   ---   0.00   0.0   ---   16.3   16.6   16.6  1012.3  0.00   0.0   0.014   0.000   22.2    57   13.2   21.9  10.47 1.1768    41.7   205    2     92.3   10 
10/12/18  4:50a   16.3   16.3   16.2    89   14.5   0.0   ---   0.00   0.0   ---   16.3   16.5   16.5  1012.4  0.00   0.0   0.014   0.000   22.2    57   13.3   22.1  10.47 1.1767    41.7   206    2     92.8   10 
10/12/18  5:00a   16.3   16.3   16.2    89   14.5   0.0   ---   0.00   0.0   ---   16.3   16.5   16.5  1012.1  0.00   0.0   0.014   0.000   22.3    57   13.4   22.2  10.46 1.1757    41.7   209    2     94.1   10 
10/12/18  5:10a   16.3   16.3   16.2    89   14.5   0.0   ---   0.00   0.0   ---   16.3   16.5   16.5  1012.1  0.00   0.0   0.014   0.000   22.3    58   13.7   22.2  10.66 1.1754    41.7   201    2     90.5   10 
10/12/18  5:20a   16.3   16.3   16.3    88   14.3   0.0   ---   0.00   0.0   ---   16.3   16.4   16.4  1012.2  0.00   0.0   0.014   0.000   22.3    57   13.4   22.2  10.46 1.1759    41.7   211    2     95.0   10 
10/12/18  5:30a   16.3   16.3   16.3    88   14.3   0.0   ---   0.00   0.0   ---   16.3   16.4   16.4  1012.3  0.00   0.0   0.014   0.000   22.3    57   13.4   22.2  10.46 1.1760    41.7   195    2     87.8   10 
10/12/18  5:40a   16.3   16.3   16.3    87   14.1   0.0   ---   0.00   0.0   ---   16.3   16.4   16.4  1012.3  0.00   0.0   0.014   0.000   22.2    57   13.3   22.1  10.47 1.1766    41.7   196    2     88.3   10 
10/12/18  5:50a   16.3   16.3   16.3    86   13.9   0.0   ---   0.00   0.0   ---   16.3   16.4   16.4  1011.7  0.00   0.0   0.014   0.000   22.1    57   13.1   21.8  10.48 1.1766    41.7   198    2     89.2   10 
10/12/18  6:00a   16.3   16.3   16.3    86   13.9   0.0    SW   0.00   1.6    SW   16.3   16.4   16.4  1012.1  0.00   0.0   0.014   0.000   21.8    57   12.9   21.4  10.50 1.1783    41.7   204    2     91.9   10 
10/12/18  6:10a   16.3   16.3   16.3    87   14.1   0.0   ---   0.00   0.0   ---   16.3   16.4   16.4  1012.1  0.00   0.0   0.014   0.000   21.7    58   13.0   21.3  10.71 1.1789    41.7   209    2     94.1   10 
10/12/18  6:20a   16.3   16.3   16.3    88   14.3   0.0   ---   0.00   0.0   ---   16.3   16.4   16.4  1012.6  0.00   0.0   0.014   0.000   21.8    58   13.1   21.4  10.70 1.1789    41.7   200    2     90.1   10 
10/12/18  6:30a   16.3   16.3   16.2    89   14.5   0.0   ---   0.00   0.0   ---   16.3   16.5   16.5  1012.3  0.00   0.0   0.014   0.000   21.6    58   12.9   21.1  10.72 1.1797    41.7   206    2     92.8   10 
10/12/18  6:40a   16.2   16.3   16.2    89   14.4   0.0   ---   0.00   0.0   ---   16.2   16.4   16.4  1012.3  0.00   0.0   0.015   0.000   21.7    59   13.3   21.3  10.91 1.1788    41.7   198    2     89.2   10 
10/12/18  6:50a   16.1   16.2   16.1    90   14.5   0.0   ---   0.00   0.0   ---   16.1   16.3   16.3  1012.3  0.00   0.0   0.015   0.000   21.7    59   13.3   21.3  10.91 1.1787    41.7   195    2     87.8   10 
10/12/18  7:00a   16.2   16.2   16.1    91   14.7   0.0   ---   0.00   0.0   ---   16.2   16.4   16.4  1011.8  0.00   0.0   0.015   0.000   21.8    60   13.7   21.6  11.03 1.1773    41.7   202    2     91.0   10 
10/12/18  7:10a   16.3   16.3   16.2    91   14.8   0.0   ---   0.00   0.0   ---   16.3   16.6   16.6  1011.8  0.00   0.0   0.014   0.000   21.8    60   13.7   21.6  11.02 1.1770    41.7   197    2     88.7   10 
10/12/18  7:20a   16.3   16.3   16.3    91   14.8   0.0   ---   0.00   0.0   ---   16.3   16.6   16.6  1012.1  0.00   0.0   0.014   0.000   21.8    60   13.7   21.6  11.03 1.1776    41.7   193    2     86.9   10 
10/12/18  7:30a   16.3   16.3   16.3    92   15.0   0.0   ---   0.00   0.0   ---   16.3   16.6   16.6  1012.4  0.00   0.0   0.014   0.000   22.1    61   14.2   22.0  11.18 1.1762    41.7   184    2     82.9   10 
10/12/18  7:40a   16.4   16.4   16.3    92   15.1   0.0   ---   0.00   0.0   ---   16.4   16.7   16.7  1012.4  0.00   0.0   0.013   0.000   22.1    60   13.9   21.9  11.02 1.1765    41.7   205    2     92.3   10 
10/12/18  7:50a   16.6   16.6   16.3    93   15.5   0.0   ---   0.00   0.0   ---   16.6   16.9   16.9  1012.0  0.00   0.0   0.012   0.000   22.1    60   13.9   21.9  11.02 1.1761    41.7   201    2     90.5   10 
10/12/18  8:00a   16.9   16.9   16.6    94   15.9   0.0     W   0.00   3.2     W   16.9   17.3   17.3  1012.1  0.00   0.0   0.010   0.000   21.8    61   13.9   21.6  11.20 1.1773    41.7   200    2     90.1   10 
10/12/18  8:10a   16.8   16.9   16.8    94   15.8   0.0   ---   0.00   0.0   ---   16.8   17.2   17.2  1012.1  0.00   0.0   0.011   0.000   21.8    62   14.2   21.7  11.32 1.1767    41.7   207    2     93.2   10 
10/12/18  8:20a   16.9   16.9   16.8    95   16.1   0.0   ---   0.00   0.0   ---   16.9   17.4   17.4  1013.1  0.00   0.0   0.010   0.000   21.6    64   14.5   21.4  11.65 1.1788    41.7   191    2     86.0   10 
10/12/18  8:30a   16.9   16.9   16.9    95   16.1   0.0   ---   0.00   0.0   ---   16.9   17.4   17.4  1012.7  0.00   0.0   0.010   0.000   21.8    63   14.4   21.7  11.53 1.1775    41.7   208    2     93.7   10 
10/12/18  8:40a   17.1   17.1   16.9    96   16.4   0.0   ---   0.00   0.0   ---   17.1   17.5   17.5  1012.7  0.00   0.0   0.009   0.000   21.9    63   14.6   21.9  11.52 1.1766    41.7   186    2     83.8   10 
10/12/18  8:50a   17.1   17.1   16.9    96   16.5   0.0   ---   0.00   0.0   ---   17.1   17.6   17.6  1012.5  0.00   0.0   0.008   0.000   21.9    64   14.8   21.9  11.65 1.1760    41.7   199    2     89.6   10 
10/12/18  9:00a   17.1   17.1   17.1    96   16.4   0.0   ---   0.00   0.0   ---   17.1   17.5   17.5  1012.4  0.00   0.0   0.009   0.000   21.9    64   14.8   21.9  11.65 1.1759    41.7   210    2     94.6   10 
10/12/18  9:10a   16.9   17.1   16.8    97   16.5   0.0    SW   0.00   9.7    SW   16.9   17.4   17.4  1012.4  0.00   0.0   0.010   0.000   21.7    64   14.6   21.6  11.65 1.1773    41.7   207    2     93.2   10 
10/12/18  9:20a   17.4   17.4   16.9    97   16.9   1.6   SSW   0.27   9.7    SW   17.4   17.9   17.9  1013.4  0.00   0.0   0.007   0.000   21.2    67   14.8   21.2  12.35 1.1800    41.7   210    2     94.6   10 
10/12/18  9:30a   17.2   17.4   17.2    98   16.9   0.0   ---   0.00   0.0   ---   17.2   17.7   17.7  1013.9  0.00   0.0   0.008   0.000   21.2    68   15.1   21.2  12.55 1.1802    41.7   216    2     97.3   10 
10/12/18  9:40a   17.2   17.3   17.2    98   16.9   0.0     S   0.00   8.0     S   17.2   17.7   17.7  1013.9  0.00   0.0   0.008   0.000   21.2    69   15.3   21.3  12.85 1.1799    41.7   218    2     98.2   10 
10/12/18  9:50a   16.8   17.2   16.8    97   16.3   0.0     S   0.00   1.6     S   16.8   17.2   17.2  1013.4  0.00   0.0   0.011   0.000   21.3    68   15.1   21.3  12.55 1.1794    41.7   213    2     95.9   10 
10/12/18 10:00a   16.6   16.8   16.5    97   16.1   0.0   ---   0.00   0.0   ---   16.6   17.0   17.0  1012.4  0.00   0.0   0.012   0.000   21.2    67   14.8   21.2  12.35 1.1787    41.7   214    2     96.4   10 
10/12/18 10:10a   16.6   16.6   16.5    97   16.1   0.0   ---   0.00   0.0   ---   16.6   17.0   17.0  1012.4  0.00   0.0   0.012   0.000   21.4    66   14.8   21.3  12.14 1.1781    41.7   196    2     88.3   10 
10/12/18 10:20a   16.9   16.9   16.6    98   16.6   0.0   ---   0.00   0.0   ---   16.9   17.4   17.4  1012.5  0.00   0.0   0.010   0.000   21.6    66   14.9   21.6  12.13 1.1774    41.7   191    2     86.0   10 
10/12/18 10:30a   17.2   17.2   16.9    98   16.9   0.0   ---   0.00   0.0   ---   17.2   17.7   17.7  1012.5  0.00   0.0   0.008   0.000   21.7    65   14.8   21.6  11.85 1.1771    41.7   208    2     93.7   10 
10/12/18 10:40a   17.7   17.7   17.2    99   17.5   0.0   ---   0.00   0.0   ---   17.7   18.3   18.3  1012.5  0.00   0.0   0.005   0.000   22.1    64   14.9   22.1  11.65 1.1754    41.7   205    2     92.3   10 
10/12/18 10:50a   17.8   17.8   17.6    99   17.7   0.0   ---   0.00   0.0   ---   17.8   18.4   18.4  1012.4  0.00   0.0   0.003   0.000   22.2    64   15.1   22.3  11.65 1.1744    41.7   214    2     96.4   10 
10/12/18 11:00a   18.0   18.0   17.8    98   17.7   0.0   ---   0.00   0.0   ---   18.0   18.6   18.6  1012.4  0.00   0.0   0.002   0.000   22.3    63   14.9   22.4  11.51 1.1742    41.7   217    2     97.7   10 
10/12/18 11:10a   18.0   18.1   18.0    98   17.7   0.0   ---   0.00   0.0   ---   18.0   18.6   18.6  1012.4  0.00   0.0   0.002   0.000   22.5    62   14.9   22.7  11.30 1.1737    41.7   206    2     92.8   10 
10/12/18 11:20a   18.3   18.3   18.0    98   18.0   0.0   ---   0.00   0.0   ---   18.3   18.9   18.9  1012.5  0.00   0.0   0.000   0.000   22.7    61   14.8   22.9  11.13 1.1729    41.7   217    2     97.7   10 
10/12/18 11:30a   18.6   18.6   18.2    97   18.1   0.0   ---   0.00   0.0   ---   18.6   19.3   19.3  1012.4  0.00   0.0   0.000   0.002   23.0    59   14.6   23.2  10.81 1.1721    41.7   214    2     96.4   10 
10/12/18 11:40a   18.9   18.9   18.5    96   18.3   0.0   ---   0.00   0.0   ---   18.9   19.7   19.7  1012.4  0.00   0.0   0.000   0.004   23.2    58   14.4   23.4  10.60 1.1715    41.7   214    2     96.4   10 
10/12/18 11:50a   19.3   19.3   18.9    92   17.9   0.0   ---   0.00   0.0   ---   19.3   20.1   20.1  1012.2  0.00   0.0   0.000   0.007   23.4    57   14.4   23.6  10.39 1.1705    41.7   212    2     95.5   10 
10/12/18 12:00p   20.0   20.0   19.3    87   17.8   0.0   ---   0.00   0.0   ---   20.0   20.9   20.9  1012.1  0.00   0.0   0.000   0.012   23.6    56   14.3   23.8  10.26 1.1698    41.7   211    2     95.0   10 
10/12/18 12:10p   20.8   20.8   20.0    82   17.6   0.0   ---   0.00   0.0   ---   20.8   21.6   21.6  1012.1  0.00   0.0   0.000   0.017   23.7    56   14.4   23.9  10.26 1.1693    41.7   205    2     92.3   10 
10/12/18 12:20p   21.6   21.6   20.8    77   17.4   0.0   ---   0.00   0.0   ---   21.6   22.2   22.2  1012.0  0.00   0.0   0.000   0.023   23.9    55   14.3   24.2  10.05 1.1683    41.7   196    2     88.3   10 
10/12/18 12:30p   22.8   22.8   21.6    75   18.2   0.0   ---   0.00   0.0   ---   22.8   23.7   23.7  1011.6  0.00   0.0   0.000   0.031   23.9    55   14.3   24.2  10.05 1.1676    41.7   201    2     90.5   10 
10/12/18 12:40p   23.9   23.9   22.8    66   17.1   0.0   ---   0.00   0.0   ---   23.9   24.7   24.7  1011.6  0.00   0.0   0.000   0.039   24.3    56   14.9   24.5  10.22 1.1656    41.7   202    2     91.0   10 
10/12/18 12:50p   24.1   24.1   23.9    64   16.9   0.0     W   0.00   1.6     W   24.1   24.8   24.8  1011.4  0.00   0.0   0.000   0.040   24.3    56   15.0   24.6  10.22 1.1651    41.7   203    2     91.4   10 
10/12/18  1:00p   24.7   24.7   24.1    62   16.9   0.0     W   0.00   4.8     W   24.7   25.2   25.2  1011.2  0.00   0.0   0.000   0.044   24.6    56   15.2   24.8  10.20 1.1638    41.7   207    2     93.2   10 
10/12/18  1:10p   25.4   25.4   24.7    60   17.1   0.0     W   0.00   6.4     W   25.4   25.9   25.9  1011.2  0.00   0.0   0.000   0.049   24.8    56   15.5   25.1  10.18 1.1623    41.7   203    2     91.4   10 
10/12/18  1:20p   26.2   26.2   25.4    58   17.3   0.0     W   0.00   3.2     W   26.2   26.7   26.7  1010.9  0.00   0.0   0.000   0.054   25.1    56   15.7   25.3  10.17 1.1608    41.7   205    2     92.3   10 
10/12/18  1:30p   26.6   26.6   26.3    55   16.8   1.6   WNW   0.27   9.7   WNW   26.6   27.0   27.0  1010.5  0.00   0.0   0.000   0.057   25.3    54   15.4   25.5   9.80 1.1597    41.7   193    2     86.9   10 
10/12/18  1:40p   26.7   26.9   26.6    52   16.0   0.0   WNW   0.00   8.0   WNW   26.7   26.8   26.8  1010.5  0.00   0.0   0.000   0.058   25.6    53   15.3   25.7   9.65 1.1589    41.7   215    2     96.8   10 
10/12/18  1:50p   26.6   26.7   26.6    51   15.6   1.6   WNW   0.27   8.0   WNW   26.6   26.7   26.7  1010.5  0.00   0.0   0.000   0.057   25.8    53   15.5   26.1   9.65 1.1575    41.7   211    2     95.0   10 
10/12/18  2:00p   26.7   26.8   26.5    48   14.7   0.0   WNW   0.00   4.8   WNW   26.7   26.6   26.6  1010.3  0.00   0.0   0.000   0.058   26.2    52   15.5   26.4   9.47 1.1560    41.7   214    2     96.4   10 
10/12/18  2:10p   26.9   26.9   26.7    49   15.3   0.0   WNW   0.00   6.4   WNW   26.9   26.9   26.9  1010.3  0.00   0.0   0.000   0.059   26.3    51   15.3   26.4   9.35 1.1558    41.7   214    2     96.4   10 
10/12/18  2:20p   27.8   27.8   26.9    47   15.5   1.6    NW   0.27  11.3    NW   27.8   27.9   27.9  1010.2  0.00   0.0   0.000   0.066   26.3    51   15.4   26.5   9.35 1.1554    41.7   219    2     98.6   10 
10/12/18  2:30p   28.5   28.5   27.9    46   15.8   1.6    NW   0.27  11.3    NW   28.5   28.9   28.9  1010.0  0.00   0.0   0.000   0.071   26.6    50   15.3   26.6   9.15 1.1544    41.7   211    2     95.0   10 
10/12/18  2:40p   28.4   28.5   28.4    46   15.7   1.6    NW   0.27   9.7   NNW   28.4   28.8   28.8  1010.0  0.00   0.0   0.000   0.070   26.7    50   15.4   26.7   9.15 1.1539    41.7   218    2     98.2   10 
10/12/18  2:50p   28.4   28.4   28.3    45   15.3   1.6   NNW   0.27   8.0   NNW   28.4   28.7   28.7  1009.7  0.00   0.0   0.000   0.070   26.9    49   15.3   26.9   8.94 1.1528    41.7   217    2     97.7   10 
10/12/18  3:00p   28.1   28.5   28.1    44   14.7   1.6    NW   0.27   9.7   NNW   28.1   28.1   28.1  1009.7  0.00   0.0   0.000   0.068   27.0    49   15.4   27.0   8.94 1.1522    41.7   217    2     97.7   10 
10/12/18  3:10p   27.6   28.1   27.6    44   14.3   1.6    NW   0.27  11.3    NW   27.6   27.4   27.4  1009.7  0.00   0.0   0.000   0.064   27.1    48   15.1   27.0   8.84 1.1523    41.7   213    2     95.9   10 
10/12/18  3:20p   27.6   27.6   27.4    48   15.6   1.6    NW   0.27  11.3    NW   27.6   27.7   27.7  1009.5  0.00   0.0   0.000   0.064   27.2    49   15.5   27.2   8.93 1.1511    41.7   214    2     96.4   10 
10/12/18  3:30p   27.9   27.9   27.6    44   14.6   3.2    NW   0.54  11.3     W   27.9   27.9   27.9  1009.6  0.00   0.0   0.000   0.067   27.3    48   15.3   27.3   8.83 1.1511    41.7   211    2     95.0   10 
10/12/18  3:40p   27.7   27.9   27.7    47   15.4   1.6   NNW   0.27   9.7   NNW   27.7   27.8   27.8  1009.6  0.00   0.0   0.000   0.065   27.3    48   15.3   27.3   8.83 1.1511    41.7   219    2     98.6   10 
10/12/18  3:50p   27.7   27.7   27.7    46   15.0   0.0    NW   0.00   8.0    NW   27.7   27.7   27.7  1009.5  0.00   0.0   0.000   0.065   27.3    48   15.3   27.3   8.83 1.1510    41.7   211    2     95.0   10 
10/12/18  4:00p   27.9   27.9   27.7    45   14.9   0.0   NNW   0.00   8.0   NNW   27.9   28.0   28.0  1009.4  0.00   0.0   0.000   0.067   27.4    47   15.1   27.3   8.62 1.1508    41.7   212    2     95.5   10 
10/12/18  4:10p   28.5   28.5   27.9    43   14.7   0.0     W   0.00   8.0     W   28.5   28.7   28.7  1009.4  0.00   0.0   0.000   0.071   27.4    47   15.1   27.3   8.62 1.1508    41.7   211    2     95.0   10 
10/12/18  4:20p   28.8   28.8   28.5    42   14.6   1.6   WNW   0.27   8.0   WNW   28.8   29.2   29.2  1009.3  0.00   0.0   0.000   0.073   27.6    47   15.3   27.7   8.62 1.1496    41.7   204    2     91.9   10 
10/12/18  4:30p   28.9   29.1   28.8    40   14.0   0.0    NW   0.00   8.0    NW   28.9   29.1   29.1  1009.3  0.00   0.0   0.000   0.074   27.7    46   15.0   27.7   8.45 1.1495    41.7   214    2     96.4   10 
10/12/18  4:40p   28.7   28.9   28.7    41   14.2   0.0    NW   0.00   3.2    NW   28.7   28.9   28.9  1009.3  0.00   0.0   0.000   0.072   29.6    40   14.5   29.6   7.55 1.1432    41.7   215    2     96.8   10 
10/12/18  4:50p   29.1   29.1   28.7    42   14.9   0.0    NW   0.00   6.4    NW   29.1   29.4   29.4  1009.5  0.00   0.0   0.000   0.075   33.4    37   16.7   34.2   6.91 1.1263    41.7   214    2     96.4   10 
10/12/18  5:00p   29.3   29.3   29.2    38   13.5   0.0    NW   0.00   8.0   WNW   29.3   29.2   29.2  1009.3  0.00   0.0   0.000   0.076   31.6    38   15.6   31.7   7.17 1.1341    41.7   214    2     96.4   10 
10/12/18  5:10p   28.6   29.3   28.6    39   13.3   0.0     W   0.00   4.8     W   28.6   28.5   28.5  1009.3  0.00   0.0   0.000   0.071   30.0    41   15.3   30.2   7.65 1.1405    41.7   217    2     97.7   10 
10/12/18  5:20p   28.1   28.6   28.1    40   13.2   0.0     W   0.00   3.2     W   28.1   27.8   27.8  1009.4  0.00   0.0   0.000   0.068   29.2    42   15.0   29.5   7.85 1.1439    41.7   215    2     96.8   10 
10/12/18  5:30p   27.6   28.1   27.6    42   13.5   0.0     W   0.00   1.6     W   27.6   27.3   27.3  1009.5  0.00   0.0   0.000   0.064   28.7    43   14.9   28.9   7.98 1.1463    41.7   214    2     96.4   10 
10/12/18  5:40p   27.5   27.6   27.5    41   13.1   0.0   ---   0.00   0.0   ---   27.5   27.1   27.1  1009.5  0.00   0.0   0.000   0.064   28.7    43   14.9   28.9   7.98 1.1463    41.7   215    2     96.8   10 
10/12/18  5:50p   27.4   27.5   27.4    41   13.0   0.0     W   0.00   8.0     W   27.4   26.9   26.9  1009.7  0.00   0.0   0.000   0.063   28.4    44   15.0   28.7   8.15 1.1472    41.7   217    2     97.7   10 
10/12/18  6:00p   27.1   27.4   27.1    41   12.7   0.0     W   0.00   1.6     W   27.1   26.6   26.6  1009.8  0.00   0.0   0.000   0.061   28.1    44   14.7   28.2   8.15 1.1489    41.7   215    2     96.8   10 
10/12/18  6:10p   26.9   27.1   26.9    41   12.5   0.0   ---   0.00   0.0   ---   26.9   26.4   26.4  1009.8  0.00   0.0   0.000   0.059   27.9    44   14.5   27.8   8.15 1.1500    41.7   216    2     97.3   10 
10/12/18  6:20p   26.9   26.9   26.9    42   12.9   0.0   ---   0.00   0.0   ---   26.9   26.4   26.4  1009.8  0.00   0.0   0.000   0.059   27.8    44   14.5   27.7   8.15 1.1503    41.7   212    2     95.5   10 
10/12/18  6:30p   26.7   26.9   26.7    42   12.7   0.0   ---   0.00   0.0   ---   26.7   26.2   26.2  1010.0  0.00   0.0   0.000   0.058   27.6    44   14.3   27.4   8.15 1.1517    41.7   219    2     98.6   10 
10/12/18  6:40p   26.5   26.7   26.5    43   12.9   0.0   ---   0.00   0.0   ---   26.5   26.2   26.2  1010.0  0.00   0.0   0.000   0.057   27.5    45   14.5   27.4   8.32 1.1518    41.7   212    2     95.5   10 
10/12/18  6:50p   26.3   26.5   26.3    43   12.7   0.0     S   0.00   9.7     S   26.3   26.0   26.0  1010.3  0.00   0.0   0.000   0.055   27.5    45   14.5   27.4   8.32 1.1521    41.7   218    2     98.2   10 
10/12/18  7:00p   24.1   26.2   24.1    53   13.9   1.6   NNE   0.27  12.9    SE   24.1   24.3   24.3  1011.2  0.00   0.0   0.000   0.040   27.4    44   14.1   27.2   8.15 1.1541    41.7   213    2     95.9   10 
10/12/18  7:10p   22.3   24.0   22.3    59   13.9   1.6    NE   0.27   9.7   NNE   22.3   22.2   22.2  1011.2  0.00   0.0   0.000   0.027   27.3    44   14.0   27.0   8.15 1.1547    41.7   215    2     96.8   10 
10/12/18  7:20p   21.1   22.2   21.1    65   14.2   1.6   ENE   0.27  19.3    SE   21.1   20.9   20.9  1011.9  0.00   0.0   0.000   0.019   27.2    44   13.9   26.9   8.15 1.1561    41.7   218    2     98.2   10 
10/12/18  7:30p   19.7   20.8   19.7    69   13.8   3.2     E   0.54  17.7   ESE   19.7   19.9   19.9  1012.5  0.00   0.0   0.000   0.009   27.1    44   13.8   26.8   8.15 1.1573    41.7   217    2     97.7   10 
10/12/18  7:40p   19.0   19.6   19.0    71   13.6   3.2     E   0.54  20.9    SE   19.0   19.2   19.2  1012.5  0.00   0.0   0.000   0.005   27.2    44   13.9   26.9   8.15 1.1568    41.7   215    2     96.8   10 
10/12/18  7:50p   18.7   18.9   18.7    72   13.6   0.0   ENE   0.00  11.3     E   18.7   18.9   18.9  1013.4  0.00   0.0   0.000   0.003   27.1    45   14.1   26.8   8.34 1.1579    41.7   219    2     98.6   10 
10/12/18  8:00p   18.4   18.7   18.4    76   14.1   1.6   ESE   0.27  11.3   ESE   18.4   18.6   18.6  1014.0  0.00   0.0   0.000   0.000   27.0    45   14.1   26.8   8.34 1.1589    41.7   217    2     97.7   10 
10/12/18  8:10p   18.1   18.4   18.1    79   14.4   0.0     E   0.00   9.7   ESE   18.1   18.4   18.4  1014.0  0.25   0.0   0.002   0.000   27.0    45   14.1   26.8   8.34 1.1589    41.7   216    2     97.3   10 
10/12/18  8:20p   17.9   18.1   17.9    80   14.4   1.6     E   0.27  16.1   SSE   17.9   18.3   18.3  1014.3  0.00   0.0   0.003   0.000   26.8    45   13.9   26.6   8.35 1.1604    41.7   220    2     99.1   10 
10/12/18  8:30p   17.8   17.9   17.8    81   14.5   0.0     E   0.00   9.7     E   17.8   18.1   18.1  1014.5  0.00   0.0   0.003   0.000   26.7    46   14.1   26.5   8.45 1.1607    41.7   208    2     93.7   10 
10/12/18  8:40p   17.8   17.8   17.8    81   14.5   0.0     E   0.00   9.7    NE   17.8   18.1   18.1  1014.5  0.00   0.0   0.004   0.000   26.7    45   13.7   26.4   8.35 1.1611    41.7   204    2     91.9   10 
10/12/18  8:50p   17.8   17.8   17.8    81   14.5   0.0   ENE   0.00   8.0    SE   17.8   18.1   18.1  1014.7  0.00   0.0   0.004   0.000   26.6    45   13.6   26.3   8.35 1.1619    41.7   218    2     98.2   10 
10/12/18  9:00p   17.8   17.8   17.8    80   14.3   1.6     E   0.27  16.1     E   17.8   18.1   18.1  1015.0  0.00   0.0   0.004   0.000   26.4    46   13.9   26.3   8.46 1.1625    41.7   214    2     96.4   10 
10/12/18  9:10p   17.8   17.8   17.8    80   14.3   0.0   ESE   0.00  12.9   ESE   17.8   18.1   18.1  1015.0  0.00   0.0   0.004   0.000   26.4    46   13.9   26.3   8.46 1.1625    41.7   211    2     95.0   10 
10/12/18  9:20p   17.7   17.8   17.7    80   14.2   0.0     E   0.00   4.8     E   17.7   17.9   17.9  1015.1  0.00   0.0   0.005   0.000   26.3    46   13.7   26.2   8.46 1.1634    41.7   211    2     95.0   10 
10/12/18  9:30p   17.7   17.7   17.7    81   14.4   0.0     E   0.00   1.6     E   17.7   17.9   17.9  1015.3  0.00   0.0   0.005   0.000   26.3    46   13.7   26.2   8.46 1.1636    41.7   213    2     95.9   10 
10/12/18  9:40p   17.6   17.7   17.6    81   14.3   0.0     E   0.00   9.7     E   17.6   17.8   17.8  1015.3  0.00   0.0   0.005   0.000   26.2    46   13.6   26.1   8.47 1.1642    41.7   218    2     98.2   10 
10/12/18  9:50p   17.5   17.6   17.5    81   14.2   0.0    SE   0.00  11.3    SE   17.5   17.7   17.7  1015.3  0.00   0.0   0.006   0.000   25.9    46   13.4   25.8   8.48 1.1652    41.7   215    2     96.8   10 
10/12/18 10:00p   17.5   17.5   17.5    81   14.2   0.0    SE   0.00  11.3    SE   17.5   17.7   17.7  1015.5  0.00   0.0   0.006   0.000   25.8    46   13.3   25.7   8.48 1.1660    41.7   212    2     95.5   10 
10/12/18 10:10p   17.5   17.5   17.5    81   14.2   1.6    SE   0.27   8.0   ESE   17.5   17.7   17.7  1015.5  0.00   0.0   0.006   0.000   25.8    46   13.3   25.7   8.48 1.1660    41.7   204    2     91.9   10 
10/12/18 10:20p   17.4   17.5   17.4    81   14.1   1.6    SE   0.27   9.7    SE   17.4   17.6   17.6  1015.4  0.00   0.0   0.007   0.000   25.8    46   13.3   25.7   8.48 1.1659    41.7   211    2     95.0   10 
10/12/18 10:30p   17.3   17.4   17.3    81   14.0   0.0   ---   0.00   0.0   ---   17.3   17.6   17.6  1015.5  0.00   0.0   0.007   0.000   25.8    46   13.3   25.7   8.48 1.1661    41.7   213    2     95.9   10 
10/12/18 10:40p   17.3   17.3   17.3    81   14.0   0.0   ---   0.00   0.0   ---   17.3   17.6   17.6  1015.5  0.00   0.0   0.007   0.000   25.7    46   13.2   25.6   8.48 1.1666    41.7   218    2     98.2   10 
10/12/18 10:50p   17.2   17.3   17.2    81   13.9   0.0    SE   0.00   4.8    SE   17.2   17.4   17.4  1015.6  0.00   0.0   0.008   0.000   25.7    46   13.2   25.6   8.48 1.1667    41.7   214    2     96.4   10 
10/12/18 11:00p   17.2   17.2   17.2    81   13.9   0.0    SE   0.00  12.9    SE   17.2   17.4   17.4  1015.6  0.00   0.0   0.008   0.000   25.6    46   13.1   25.4   8.49 1.1675    41.7   217    2     97.7   10 
10/12/18 11:10p   17.2   17.2   17.2    82   14.1   0.0    SE   0.00   3.2    SE   17.2   17.4   17.4  1015.6  0.00   0.0   0.008   0.000   25.4    47   13.3   25.3   8.69 1.1677    41.7   179    2     80.6   10 
10/12/18 11:20p   17.2   17.2   17.2    82   14.1   0.0    SE   0.00   1.6    SE   17.2   17.4   17.4  1015.2  0.00   0.0   0.008   0.000   25.4    47   13.3   25.3   8.69 1.1673    41.7   214    2     96.4   10 
10/12/18 11:30p   17.1   17.2   17.1    82   14.0   0.0    SE   0.00   3.2    SE   17.1   17.3   17.3  1015.2  0.00   0.0   0.008   0.000   25.3    47   13.2   25.2   8.70 1.1678    41.7   215    2     96.8   10 
10/12/18 11:40p   16.9   17.1   16.9    82   13.8   0.0    SE   0.00   9.7   NNE   16.9   17.1   17.1  1015.2  0.00   0.0   0.010   0.000   25.3    47   13.2   25.2   8.70 1.1678    41.7   213    2     95.9   10 
10/12/18 11:50p   16.9   16.9   16.9    82   13.8   0.0    NE   0.00   4.8    NE   16.9   17.1   17.1  1015.1  0.00   0.0   0.010   0.000   25.2    47   13.1   25.1   8.70 1.1683    41.7   214    2     96.4   10 
11/12/18 12:00a   16.7   16.9   16.7    82   13.6   0.0   ESE   0.00  11.3   SSE   16.7   16.9   16.9  1014.9  0.00   0.0   0.011   0.000   25.2    47   13.1   25.0   8.70 1.1683    41.7   222    2    100.0   10 
11/12/18 12:10a   16.7   16.8   16.7    83   13.8   0.0   ---   0.00   0.0   ---   16.7   16.9   16.9  1014.9  0.00   0.0   0.011   0.000   25.1    47   13.0   24.8   8.71 1.1688    41.7   216    2     97.3   10 
11/12/18 12:20a   16.8   16.8   16.7    83   13.9   0.0   ESE   0.00   4.8   ESE   16.8   16.9   16.9  1014.4  0.00   0.0   0.011   0.000   24.9    47   12.9   24.7   8.71 1.1688    41.7   213    2     95.9   10 
11/12/18 12:30a   16.8   16.8   16.8    82   13.7   0.0   ESE   0.00   8.0   ESE   16.8   16.9   16.9  1014.4  0.00   0.0   0.011   0.000   24.8    47   12.8   24.7   8.72 1.1693    41.7   221    2     99.5   10 
11/12/18 12:40a   16.9   16.9   16.9    82   13.8   0.0   ESE   0.00   1.6   ESE   16.9   17.1   17.1  1014.4  0.00   0.0   0.010   0.000   24.8    47   12.8   24.7   8.72 1.1693    41.7   218    2     98.2   10 
11/12/18 12:50a   17.1   17.1   16.9    82   14.0   0.0   ESE   0.00   9.7     E   17.1   17.2   17.2  1014.3  0.00   0.0   0.009   0.000   24.7    47   12.6   24.6   8.72 1.1698    41.7   214    2     96.4   10 
11/12/18  1:00a   17.1   17.1   16.9    82   14.0   0.0   ESE   0.00  11.3   ESE   17.1   17.2   17.2  1014.3  0.00   0.0   0.009   0.000   24.7    47   12.6   24.6   8.72 1.1698    41.7   215    2     96.8   10 
11/12/18  1:10a   17.1   17.1   17.1    82   14.0   0.0     E   0.00   8.0     E   17.1   17.2   17.2  1014.3  0.00   0.0   0.009   0.000   24.7    47   12.6   24.5   8.72 1.1700    41.7   215    2     96.8   10 
11/12/18  1:20a   17.1   17.1   17.1    83   14.1   0.0     E   0.00   3.2     E   17.1   17.3   17.3  1014.0  0.00   0.0   0.009   0.000   24.7    48   12.9   24.6   8.92 1.1693    41.7   218    2     98.2   10 
11/12/18  1:30a   17.1   17.1   16.9    83   14.1   0.0    SE   0.00   3.2     E   17.1   17.3   17.3  1013.9  0.00   0.0   0.009   0.000   24.6    47   12.5   24.4   8.73 1.1701    41.7   217    2     97.7   10 
11/12/18  1:40a   16.9   17.1   16.9    84   14.2   0.0   ---   0.00   0.0   ---   16.9   17.1   17.1  1013.9  0.00   0.0   0.010   0.000   24.4    48   12.7   24.3   8.93 1.1703    41.7   216    2     97.3   10 
11/12/18  1:50a   16.8   16.9   16.8    84   14.1   0.0    SE   0.00   3.2    SE   16.8   16.9   16.9  1013.8  0.00   0.0   0.011   0.000   24.4    48   12.7   24.3   8.93 1.1702    41.7   216    2     97.3   10 
11/12/18  2:00a   16.8   16.8   16.8    84   14.1   0.0    SE   0.00   3.2    SE   16.8   16.9   16.9  1013.8  0.00   0.0   0.011   0.000   24.3    48   12.6   24.3   8.93 1.1707    41.7   217    2     97.7   10 
11/12/18  2:10a   16.7   16.8   16.7    84   14.0   0.0   ---   0.00   0.0   ---   16.7   16.9   16.9  1013.8  0.00   0.0   0.011   0.000   24.3    48   12.6   24.3   8.93 1.1707    41.7   212    2     95.5   10 
11/12/18  2:20a   16.7   16.7   16.7    84   14.0   0.0    SE   0.00   3.2    SE   16.7   16.9   16.9  1013.7  0.00   0.0   0.011   0.000   24.3    48   12.6   24.2   8.94 1.1709    41.7   217    2     97.7   10 
11/12/18  2:30a   16.7   16.7   16.7    83   13.8   0.0    SE   0.00   3.2    SE   16.7   16.9   16.9  1013.6  0.00   0.0   0.011   0.000   24.3    48   12.6   24.2   8.94 1.1708    41.7   209    2     94.1   10 
11/12/18  2:40a   16.6   16.7   16.6    83   13.7   0.0    SE   0.00   3.2    SE   16.6   16.7   16.7  1013.6  0.00   0.0   0.012   0.000   24.2    47   12.1   24.1   8.74 1.1717    41.7   216    2     97.3   10 
11/12/18  2:50a   16.5   16.6   16.5    84   13.8   0.0   ---   0.00   0.0   ---   16.5   16.6   16.6  1013.3  0.00   0.0   0.013   0.000   24.2    48   12.5   24.1   8.94 1.1710    41.7   211    2     95.0   10 
11/12/18  3:00a   16.5   16.5   16.5    84   13.8   0.0   ---   0.00   0.0   ---   16.5   16.6   16.6  1013.3  0.00   0.0   0.013   0.000   24.1    48   12.4   24.0   8.94 1.1715    41.7   217    2     97.7   10 
11/12/18  3:10a   16.4   16.5   16.4    84   13.7   0.0    SE   0.00   4.8    SE   16.4   16.6   16.6  1013.3  0.00   0.0   0.013   0.000   24.1    48   12.4   24.0   8.94 1.1715    41.7   216    2     97.3   10 
11/12/18  3:20a   16.4   16.5   16.4    84   13.7   0.0    SE   0.00   1.6    SE   16.4   16.6   16.6  1013.1  0.00   0.0   0.013   0.000   24.1    48   12.4   24.0   8.94 1.1713    41.7   215    2     96.8   10 
11/12/18  3:30a   16.4   16.5   16.4    84   13.7   0.0    SE   0.00   4.8    SE   16.4   16.6   16.6  1012.9  0.00   0.0   0.013   0.000   24.1    48   12.4   24.0   8.94 1.1711    41.7   209    2     94.1   10 
11/12/18  3:40a   16.4   16.4   16.4    84   13.7   0.0   ---   0.00   0.0   ---   16.4   16.6   16.6  1012.9  0.00   0.0   0.013   0.000   24.1    48   12.4   24.0   8.94 1.1711    41.7   213    2     95.9   10 
11/12/18  3:50a   16.5   16.5   16.4    83   13.6   0.0   ---   0.00   0.0   ---   16.5   16.6   16.6  1012.9  0.00   0.0   0.013   0.000   23.9    47   11.9   23.8   8.75 1.1720    41.7   217    2     97.7   10 
11/12/18  4:00a   16.5   16.5   16.4    83   13.6   0.0    SE   0.00   8.0    SE   16.5   16.6   16.6  1012.8  0.00   0.0   0.013   0.000   23.9    48   12.3   23.9   8.95 1.1715    41.7   219    2     98.6   10 
11/12/18  4:10a   16.5   16.5   16.5    83   13.6   0.0    SE   0.00   4.8    SE   16.5   16.6   16.6  1012.8  0.00   0.0   0.013   0.000   23.9    48   12.2   23.8   8.95 1.1717    41.7   217    2     97.7   10 
11/12/18  4:20a   16.5   16.5   16.5    83   13.6   0.0    SE   0.00   6.4    SE   16.5   16.6   16.6  1012.6  0.00   0.0   0.013   0.000   23.9    48   12.2   23.8   8.95 1.1716    41.7   219    2     98.6   10 
11/12/18  4:30a   16.5   16.5   16.5    83   13.6   0.0   ---   0.00   0.0   ---   16.5   16.6   16.6  1012.7  0.00   0.0   0.013   0.000   23.8    48   12.1   23.7   8.95 1.1722    41.7   216    2     97.3   10 
11/12/18  4:40a   16.5   16.5   16.4    83   13.6   0.0    SE   0.00   3.2    SE   16.5   16.6   16.6  1012.7  0.00   0.0   0.013   0.000   23.8    48   12.1   23.7   8.95 1.1722    41.7   213    2     95.9   10 
11/12/18  4:50a   16.4   16.4   16.4    83   13.5   0.0    SE   0.00   4.8    SE   16.4   16.6   16.6  1013.0  0.00   0.0   0.013   0.000   23.7    48   12.0   23.6   8.94 1.1731    41.7   216    2     97.3   10 
11/12/18  5:00a   16.4   16.4   16.4    83   13.5   0.0    SE   0.00  11.3   ESE   16.4   16.6   16.6  1012.9  0.00   0.0   0.013   0.000   23.6    48   11.9   23.4   8.94 1.1735    41.7   217    2     97.7   10 
11/12/18  5:10a   16.3   16.4   16.3    84   13.6   0.0   ESE   0.00   9.7   ESE   16.3   16.4   16.4  1012.9  0.00   0.0   0.014   0.000   23.6    48   11.9   23.4   8.94 1.1735    41.7   215    2     96.8   10 
11/12/18  5:20a   16.3   16.3   16.3    84   13.6   0.0   ESE   0.00   1.6   ESE   16.3   16.4   16.4  1013.2  0.00   0.0   0.014   0.000   23.5    48   11.9   23.3   8.94 1.1742    41.7   216    2     97.3   10 
11/12/18  5:30a   16.2   16.3   16.2    84   13.5   0.0   ---   0.00   0.0   ---   16.2   16.3   16.3  1013.3  0.00   0.0   0.015   0.000   23.5    48   11.9   23.3   8.94 1.1743    41.7   217    2     97.7   10 
11/12/18  5:40a   16.3   16.3   16.2    85   13.8   0.0   ---   0.00   0.0   ---   16.3   16.4   16.4  1013.3  0.00   0.0   0.014   0.000   23.5    48   11.9   23.3   8.94 1.1743    41.7   209    2     94.1   10 
11/12/18  5:50a   16.3   16.3   16.3    85   13.8   0.0   ---   0.00   0.0   ---   16.3   16.4   16.4  1013.4  0.00   0.0   0.014   0.000   23.4    48   11.8   23.2   8.93 1.1750    41.7   206    2     92.8   10 
11/12/18  6:00a   16.3   16.3   16.3    85   13.8   0.0   ---   0.00   0.0   ---   16.3   16.4   16.4  1013.5  0.00   0.0   0.014   0.000   23.3    48   11.6   23.1   8.93 1.1756    41.7   213    2     95.9   10 
11/12/18  6:10a   16.3   16.3   16.3    85   13.8   0.0   ESE   0.00   6.4   ESE   16.3   16.4   16.4  1013.5  0.00   0.0   0.014   0.000   23.3    48   11.6   23.1   8.93 1.1756    41.7   218    2     98.2   10 
11/12/18  6:20a   16.3   16.3   16.3    85   13.8   0.0   ---   0.00   0.0   ---   16.3   16.4   16.4  1013.9  0.00   0.0   0.014   0.000   23.3    48   11.6   23.1   8.93 1.1761    41.7   216    2     97.3   10 
11/12/18  6:30a   16.4   16.4   16.3    84   13.7   0.0   ---   0.00   0.0   ---   16.4   16.6   16.6  1014.2  0.00   0.0   0.013   0.000   23.3    48   11.6   23.1   8.93 1.1764    41.7   211    2     95.0   10